Time;durP1;ratioP1;P1;durP2;ratioP2;P2;SDS_P1;SDS_P2;PMS_P1;PMS_P2;Temp;Humidity;BMP_temperature;BMP_pressure;BME280_temperature;BME280_humidity;BME280_pressure;Samples;Min_cycle;Max_cycle;Signal;HPM_P1;HPM_P2
2022/07/13 00:00:21;;;;;;;;;;;;;;;13.30;98.11;98769.09;1724406;83;20165;-72
2022/07/13 00:02:48;;;;;;;;;;;;;;;13.30;98.15;98762.20;1724973;83;20144;-72
2022/07/13 00:05:14;;;;;;;;;;;;;;;13.30;98.06;98760.03;1724596;83;20162;-72
2022/07/13 00:07:40;;;;;;;;;;;;;;;13.29;98.06;98755.09;1736923;82;20460;-73
2022/07/13 00:10:07;;;;;;;;;;;;;;;13.28;98.05;98752.72;1754822;82;21093;-72
2022/07/13 00:12:35;;;;;;;;;;;;;;;13.27;98.08;98752.49;1754531;82;20402;-72
2022/07/13 00:15:02;;;;;;;;;;;;;;;13.26;98.04;98739.29;1754501;81;20095;-72
2022/07/13 00:17:29;;;;;;;;;;;;;;;13.28;97.96;98748.58;1754361;82;20560;-73
2022/07/13 00:19:55;;;;;;;;;;;;;;;13.27;97.93;98738.14;1754779;82;20107;-71
2022/07/13 00:22:21;;;;;;;;;;;;;;;13.25;97.90;98737.69;1754597;81;21233;-72
2022/07/13 00:24:48;;;;;;;;;;;;;;;13.26;97.76;98743.42;1754820;81;20125;-72
2022/07/13 00:27:14;;;;;;;;;;;;;;;13.27;97.73;98733.20;1754386;81;20416;-72
2022/07/13 00:29:40;;;;;;;;;;;;;;;13.28;97.48;98735.61;1754407;81;20103;-74
2022/07/13 00:32:07;;;;;;;;;;;;;;;13.31;97.21;98744.52;1754558;81;20131;-72
2022/07/13 00:34:33;;;;;;;;;;;;;;;13.34;96.86;98732.78;1754553;81;21191;-71
2022/07/13 00:37:00;;;;;;;;;;;;;;;13.38;96.63;98734.26;1754381;82;20465;-79
2022/07/13 00:39:27;;;;;;;;;;;;;;;13.42;96.05;98729.64;1749654;81;20097;-72
2022/07/13 00:41:53;;;;;;;;;;;;;;;13.45;95.77;98723.42;1724428;83;21235;-73
2022/07/13 00:44:20;;;;;;;;;;;;;;;13.49;95.31;98721.55;1724658;83;20156;-72
2022/07/13 00:46:53;;;;;;;;;;;;;;;13.52;95.00;98723.60;1724959;83;21779;-72
2022/07/13 00:49:21;;;;;;;;;;;;;;;13.54;94.70;98719.33;1724656;82;20116;-72
2022/07/13 00:51:47;;;;;;;;;;;;;;;13.57;94.63;98712.30;1724627;83;20132;-72
2022/07/13 00:54:13;;;;;;;;;;;;;;;13.58;94.34;98708.97;1724506;83;20097;-72
2022/07/13 00:56:40;;;;;;;;;;;;;;;13.60;94.03;98706.66;1710235;83;20084;-72
2022/07/13 00:59:07;;;;;;;;;;;;;;;13.62;93.84;98700.21;1698506;84;21781;-71
2022/07/13 01:01:34;;;;;;;;;;;;;;;13.63;93.37;98693.54;1698503;84;20173;-72
2022/07/13 01:04:00;;;;;;;;;;;;;;;13.65;93.22;98685.71;1698600;84;20082;-72
2022/07/13 01:06:26;;;;;;;;;;;;;;;13.66;92.92;98685.36;1721050;83;20119;-72
2022/07/13 01:08:54;;;;;;;;;;;;;;;13.66;93.06;98676.28;1727774;83;20434;-72
2022/07/13 01:11:21;;;;;;;;;;;;;;;13.67;92.97;98670.98;1727508;83;21751;-72
2022/07/13 01:13:48;;;;;;;;;;;;;;;13.66;93.33;98672.14;1727840;83;20162;-71
2022/07/13 01:16:14;;;;;;;;;;;;;;;13.63;93.97;98672.28;1731321;82;20095;-72
2022/07/13 01:18:40;;;;;;;;;;;;;;;13.60;94.35;98672.99;1727552;83;20131;-71
2022/07/13 01:21:08;;;;;;;;;;;;;;;13.57;95.39;98669.56;1746379;81;36145;-72
2022/07/13 01:23:36;;;;;;;;;;;;;;;13.49;96.17;98670.55;1763667;81;21649;-77
2022/07/13 01:26:07;;;;;;;;;;;;;;;13.42;96.75;98667.03;1763703;81;20114;-71
2022/07/13 01:28:32;;;;;;;;;;;;;;;13.34;97.79;98665.25;1764046;81;20114;-71
2022/07/13 01:30:59;;;;;;;;;;;;;;;13.27;98.56;98673.37;1763837;81;20113;-71
2022/07/13 01:33:27;;;;;;;;;;;;;;;13.20;99.20;98656.64;1763711;81;20070;-72
2022/07/13 01:35:58;;;;;;;;;;;;;;;13.14;99.65;98657.45;1763560;81;21141;-71
2022/07/13 01:38:27;;;;;;;;;;;;;;;13.09;100.00;98650.83;1763454;81;20094;-71
2022/07/13 01:40:53;;;;;;;;;;;;;;;13.06;100.00;98644.64;1736243;81;20115;-70
2022/07/13 01:43:23;;;;;;;;;;;;;;;13.03;100.00;98641.80;1727657;83;20131;-70
2022/07/13 01:45:50;;;;;;;;;;;;;;;13.03;100.00;98640.41;1727592;83;20130;-70
2022/07/13 01:48:17;;;;;;;;;;;;;;;13.01;100.00;98639.39;1727926;83;21053;-70
2022/07/13 01:50:45;;;;;;;;;;;;;;;13.02;100.00;98638.23;1727502;83;20083;-72
2022/07/13 01:53:12;;;;;;;;;;;;;;;13.02;100.00;98629.17;1727556;83;20520;-71
2022/07/13 01:55:39;;;;;;;;;;;;;;;13.02;100.00;98635.48;1727560;82;20094;-71
2022/07/13 01:58:05;;;;;;;;;;;;;;;13.03;100.00;98628.81;1754456;82;20107;-71
2022/07/13 02:00:31;;;;;;;;;;;;;;;13.06;100.00;98617.09;1754560;82;21832;-70
2022/07/13 02:02:58;;;;;;;;;;;;;;;13.07;100.00;98609.05;1754687;82;20086;-70
2022/07/13 02:05:26;;;;;;;;;;;;;;;13.10;100.00;98615.80;1754294;82;20185;-69
2022/07/13 02:07:54;;;;;;;;;;;;;;;13.09;100.00;98616.38;1753853;82;20115;-69
2022/07/13 02:10:34;;;;;;;;;;;;;;;13.09;100.00;98605.36;1724499;83;20117;-71
2022/07/13 02:12:51;;;;;;;;;;;;;;;13.07;100.00;98614.55;1724481;82;21123;-69
2022/07/13 02:15:18;;;;;;;;;;;;;;;13.04;100.00;98610.33;1724500;83;20535;-70
2022/07/13 02:17:44;;;;;;;;;;;;;;;12.99;100.00;98609.22;1724569;83;20089;-71
2022/07/13 02:20:12;;;;;;;;;;;;;;;12.93;100.00;98608.67;1724497;82;20128;-69
2022/07/13 02:22:45;;;;;;;;;;;;;;;12.88;100.00;98608.94;1724577;82;20137;-71
2022/07/13 02:25:13;;;;;;;;;;;;;;;12.83;100.00;98604.48;1724672;82;20532;-70
2022/07/13 02:27:42;;;;;;;;;;;;;;;12.81;100.00;98608.17;1724359;82;20425;-70
2022/07/13 02:30:09;;;;;;;;;;;;;;;12.82;100.00;98596.58;1724479;83;20110;-69
2022/07/13 02:32:37;;;;;;;;;;;;;;;12.80;100.00;98594.75;1724718;82;20084;-70
2022/07/13 02:35:05;;;;;;;;;;;;;;;12.77;100.00;98595.45;1724705;83;20085;-70
2022/07/13 02:37:32;;;;;;;;;;;;;;;12.75;100.00;98595.01;1724523;83;22245;-70
2022/07/13 02:39:59;;;;;;;;;;;;;;;12.74;100.00;98594.78;1724536;82;20105;-70
2022/07/13 02:42:25;;;;;;;;;;;;;;;12.69;100.00;98598.63;1724636;83;20169;-69
2022/07/13 02:44:52;;;;;;;;;;;;;;;12.66;100.00;98595.20;1724825;83;20561;-71
2022/07/13 02:47:19;;;;;;;;;;;;;;;12.60;100.00;98588.92;1724533;83;20207;-69
2022/07/13 02:49:47;;;;;;;;;;;;;;;12.53;100.00;98587.58;1724504;83;21548;-69
2022/07/13 02:52:13;;;;;;;;;;;;;;;12.46;100.00;98582.45;1724504;82;20444;-70
2022/07/13 02:54:40;;;;;;;;;;;;;;;12.39;100.00;98588.55;1731002;82;20130;-69
2022/07/13 02:57:06;;;;;;;;;;;;;;;12.31;100.00;98581.25;1741966;81;20377;-71
2022/07/13 02:59:33;;;;;;;;;;;;;;;12.26;100.00;98590.33;1712361;83;20122;-69
2022/07/13 03:02:00;;;;;;;;;;;;;;;12.21;100.00;98585.88;1733477;82;21551;-69
2022/07/13 03:04:26;;;;;;;;;;;;;;;12.17;100.00;98589.09;1733566;82;20437;-68
2022/07/13 03:06:54;;;;;;;;;;;;;;;12.14;100.00;98580.97;1733490;82;20095;-69
2022/07/13 03:09:20;;;;;;;;;;;;;;;12.12;100.00;98581.92;1733530;83;20137;-69
2022/07/13 03:11:47;;;;;;;;;;;;;;;12.09;100.00;98570.23;1733313;82;20466;-68
2022/07/13 03:14:13;;;;;;;;;;;;;;;12.06;100.00;98570.14;1733470;82;21546;-69
2022/07/13 03:16:40;;;;;;;;;;;;;;;12.02;100.00;98565.91;1733720;82;20122;-69
2022/07/13 03:19:07;;;;;;;;;;;;;;;12.01;100.00;98562.13;1733514;83;20426;-70
2022/07/13 03:21:35;;;;;;;;;;;;;;;11.99;100.00;98566.60;1733339;82;20598;-69
2022/07/13 03:24:01;;;;;;;;;;;;;;;11.99;100.00;98578.98;1733427;83;20091;-69
2022/07/13 03:26:28;;;;;;;;;;;;;;;11.98;100.00;98557.33;1733530;83;21822;-69
2022/07/13 03:28:55;;;;;;;;;;;;;;;12.00;100.00;98563.27;1733353;82;20168;-70
2022/07/13 03:31:21;;;;;;;;;;;;;;;12.01;100.00;98562.13;1733934;83;20131;-69
2022/07/13 03:33:48;;;;;;;;;;;;;;;12.02;100.00;98559.03;1733278;83;20170;-72
2022/07/13 03:36:16;;;;;;;;;;;;;;;12.03;100.00;98557.88;1733550;83;20099;-69
2022/07/13 03:38:42;;;;;;;;;;;;;;;12.05;100.00;98551.45;1733486;83;21676;-70
2022/07/13 03:41:09;;;;;;;;;;;;;;;12.07;100.00;98546.98;1707556;83;20442;-70
2022/07/13 03:43:36;;;;;;;;;;;;;;;12.08;100.00;98548.58;1704195;83;20089;-70
2022/07/13 03:46:03;;;;;;;;;;;;;;;12.09;100.00;98553.73;1704390;83;20149;-70
2022/07/13 03:48:30;;;;;;;;;;;;;;;12.11;100.00;98550.63;1686030;84;20132;-69
2022/07/13 03:50:57;;;;;;;;;;;;;;;12.13;100.00;98545.58;1704230;84;21794;-69
2022/07/13 03:53:23;;;;;;;;;;;;;;;12.15;100.00;98535.00;1704170;84;20089;-69
2022/07/13 03:55:50;;;;;;;;;;;;;;;12.18;100.00;98541.17;1704043;84;20116;-70
2022/07/13 03:58:17;;;;;;;;;;;;;;;12.20;100.00;98531.99;1703669;83;20160;-70
2022/07/13 04:00:43;;;;;;;;;;;;;;;12.22;100.00;98540.13;1698720;84;20078;-70
2022/07/13 04:03:10;;;;;;;;;;;;;;;12.27;100.00;98545.95;1698593;84;21075;-71
2022/07/13 04:05:36;;;;;;;;;;;;;;;12.30;100.00;98539.75;1698663;84;20077;-70
2022/07/13 04:08:04;;;;;;;;;;;;;;;12.32;100.00;98540.20;1698342;84;20097;-69
2022/07/13 04:10:31;;;;;;;;;;;;;;;12.34;100.00;98535.72;1698652;84;20113;-70
2022/07/13 04:12:58;;;;;;;;;;;;;;;12.37;100.00;98532.27;1698682;84;20097;-71
2022/07/13 04:15:25;;;;;;;;;;;;;;;12.40;100.00;98533.73;1698685;84;21151;-71
2022/07/13 04:17:51;;;;;;;;;;;;;;;12.44;100.00;98528.33;1698374;84;20132;-70
2022/07/13 04:20:19;;;;;;;;;;;;;;;12.47;100.00;98533.93;1698619;84;20140;-70
2022/07/13 04:22:47;;;;;;;;;;;;;;;12.49;100.00;98526.70;1698563;84;20198;-71
2022/07/13 04:25:14;;;;;;;;;;;;;;;12.51;100.00;98538.95;1709781;83;20449;-69
2022/07/13 04:27:41;;;;;;;;;;;;;;;12.53;100.00;98533.89;1727601;83;21112;-70
2022/07/13 04:30:08;;;;;;;;;;;;;;;12.54;100.00;98530.56;1727791;83;20083;-71
2022/07/13 04:32:35;;;;;;;;;;;;;;;12.56;100.00;98523.55;1727689;83;20119;-70
2022/07/13 04:35:01;;;;;;;;;;;;;;;12.58;100.00;98525.16;1727715;83;20079;-68
2022/07/13 04:37:29;;;;;;;;;;;;;;;12.60;100.00;98522.84;1727575;82;20147;-71
2022/07/13 04:39:57;;;;;;;;;;;;;;;12.60;100.00;98524.22;1727689;82;20477;-71
2022/07/13 04:42:24;;;;;;;;;;;;;;;12.62;100.00;98534.31;1727715;83;20434;-70
2022/07/13 04:44:51;;;;;;;;;;;;;;;12.62;100.00;98527.42;1727738;83;20135;-70
2022/07/13 04:47:18;;;;;;;;;;;;;;;12.62;100.00;98513.66;1727673;83;20122;-69
2022/07/13 04:49:44;;;;;;;;;;;;;;;12.63;100.00;98527.65;1726226;83;20412;-71
2022/07/13 04:52:11;;;;;;;;;;;;;;;12.63;100.00;98516.63;1725906;83;21089;-69
2022/07/13 04:54:39;;;;;;;;;;;;;;;12.64;100.00;98524.54;1726070;83;20156;-69
2022/07/13 04:57:06;;;;;;;;;;;;;;;12.64;100.00;98512.73;1726066;83;20077;-69
2022/07/13 04:59:33;;;;;;;;;;;;;;;12.64;100.00;98522.36;1724373;83;20210;-69
2022/07/13 05:01:59;;;;;;;;;;;;;;;12.63;100.00;98511.93;1722562;83;20486;-69
2022/07/13 05:04:26;;;;;;;;;;;;;;;12.63;100.00;98511.12;1722454;83;21128;-70
2022/07/13 05:06:52;;;;;;;;;;;;;;;12.61;100.00;98507.35;1722503;83;20430;-70
2022/07/13 05:09:21;;;;;;;;;;;;;;;12.62;100.00;98505.40;1722688;83;20435;-70
2022/07/13 05:11:50;;;;;;;;;;;;;;;12.61;100.00;98514.23;1722646;83;20472;-70
2022/07/13 05:14:16;;;;;;;;;;;;;;;12.60;100.00;98517.34;1722902;83;20085;-71
2022/07/13 05:16:43;;;;;;;;;;;;;;;12.61;100.00;98517.56;1722531;83;21145;-72
2022/07/13 05:19:11;;;;;;;;;;;;;;;12.60;100.00;98507.13;1724020;83;20112;-72
2022/07/13 05:21:38;;;;;;;;;;;;;;;12.61;100.00;98514.23;1714001;82;20087;-72
2022/07/13 05:24:05;;;;;;;;;;;;;;;12.60;100.00;98508.50;1690359;85;20433;-70
2022/07/13 05:26:32;;;;;;;;;;;;;;;12.61;100.00;98512.06;1690004;85;20100;-70
2022/07/13 05:28:58;;;;;;;;;;;;;;;12.61;100.00;98509.30;1690177;84;21740;-71
2022/07/13 05:31:25;;;;;;;;;;;;;;;12.60;100.00;98518.14;1688807;85;20196;-72
2022/07/13 05:33:52;;;;;;;;;;;;;;;12.60;100.00;98512.63;1689737;85;20131;-70
2022/07/13 05:36:20;;;;;;;;;;;;;;;12.58;100.00;98508.06;1690218;84;20122;-70
2022/07/13 05:38:47;;;;;;;;;;;;;;;12.58;100.00;98508.63;1690220;85;20079;-70
2022/07/13 05:41:14;;;;;;;;;;;;;;;12.56;100.00;98511.17;1694640;83;21976;-71
2022/07/13 05:43:41;;;;;;;;;;;;;;;12.57;100.00;98502.33;1695032;84;20147;-70
2022/07/13 05:46:08;;;;;;;;;;;;;;;12.58;100.00;98506.69;1694868;84;20477;-71
2022/07/13 05:48:35;;;;;;;;;;;;;;;12.59;100.00;98500.02;1695174;84;20087;-69
2022/07/13 05:51:03;;;;;;;;;;;;;;;12.61;100.00;98497.72;1695214;84;20431;-69
2022/07/13 05:53:29;;;;;;;;;;;;;;;12.63;100.00;98501.49;1695090;84;21156;-70
2022/07/13 05:55:56;;;;;;;;;;;;;;;12.65;100.00;98500.56;1694991;84;20154;-69
2022/07/13 05:58:23;;;;;;;;;;;;;;;12.69;100.00;98506.95;1695539;84;20410;-70
2022/07/13 06:00:49;;;;;;;;;;;;;;;12.71;100.00;98490.27;1697913;83;20436;-70
2022/07/13 06:03:16;;;;;;;;;;;;;;;12.75;100.00;98493.12;1698820;84;20089;-70
2022/07/13 06:05:42;;;;;;;;;;;;;;;12.77;100.00;98483.92;1698553;84;21109;-70
2022/07/13 06:08:09;;;;;;;;;;;;;;;12.79;100.00;98485.75;1698456;84;20118;-69
2022/07/13 06:10:36;;;;;;;;;;;;;;;12.82;100.00;98480.91;1698523;84;20140;-69
2022/07/13 06:13:02;;;;;;;;;;;;;;;12.85;100.00;98487.08;1698755;84;20385;-69
2022/07/13 06:15:29;;;;;;;;;;;;;;;12.88;100.00;98477.52;1698907;84;20168;-70
2022/07/13 06:17:55;;;;;;;;;;;;;;;12.91;100.00;98485.66;1698588;84;21181;-69
2022/07/13 06:20:21;;;;;;;;;;;;;;;12.93;100.00;98487.47;1698656;84;20464;-70
2022/07/13 06:23:09;;;;;;;;;;;;;;;12.96;100.00;98479.88;1699037;84;20138;-68
2022/07/13 06:25:16;;;;;;;;;;;;;;;12.99;100.00;98485.25;1695790;84;20109;-69
2022/07/13 06:27:42;;;;;;;;;;;;;;;13.01;100.00;98490.63;1698945;84;20122;-69
2022/07/13 06:30:10;;;;;;;;;;;;;;;13.01;100.00;98482.94;1698696;84;22150;-69
2022/07/13 06:32:37;;;;;;;;;;;;;;;13.00;100.00;98484.89;1698758;84;20121;-69
2022/07/13 06:35:05;;;;;;;;;;;;;;;13.00;100.00;98487.64;1698641;84;20097;-69
2022/07/13 06:37:31;;;;;;;;;;;;;;;13.01;100.00;98496.13;1698812;84;20118;-69
2022/07/13 06:39:58;;;;;;;;;;;;;;;13.01;100.00;98490.63;1698744;83;20085;-69
2022/07/13 06:42:24;;;;;;;;;;;;;;;13.02;100.00;98493.59;1709680;83;21549;-70
2022/07/13 06:44:51;;;;;;;;;;;;;;;13.03;100.00;98497.16;1726203;83;20142;-69
2022/07/13 06:47:18;;;;;;;;;;;;;;;13.04;100.00;98485.77;1727840;83;20441;-71
2022/07/13 06:49:45;;;;;;;;;;;;;;;13.06;100.00;98496.44;1728313;83;20087;-68
2022/07/13 06:52:12;;;;;;;;;;;;;;;13.06;100.00;98488.17;1727884;83;20110;-68
2022/07/13 06:54:38;;;;;;;;;;;;;;;13.06;100.00;98491.73;1727195;83;21273;-70
2022/07/13 06:57:05;;;;;;;;;;;;;;;13.06;100.00;98487.59;1746029;82;20166;-70
2022/07/13 06:59:31;;;;;;;;;;;;;;;13.05;100.00;98488.75;1718011;83;20127;-69
2022/07/13 07:01:58;;;;;;;;;;;;;;;13.06;100.00;98496.44;1734441;82;20139;-69
2022/07/13 07:04:25;;;;;;;;;;;;;;;13.05;100.00;98488.75;1754377;82;20133;-69
2022/07/13 07:06:53;;;;;;;;;;;;;;;13.08;100.00;98494.13;1705693;83;21158;-68
2022/07/13 07:09:19;;;;;;;;;;;;;;;13.11;100.00;98492.03;1754500;82;20091;-70
2022/07/13 07:11:46;;;;;;;;;;;;;;;13.11;100.00;98490.08;1753200;80;20534;-76
2022/07/13 07:14:13;;;;;;;;;;;;;;;13.14;100.00;98490.74;1704250;83;20159;-77
2022/07/13 07:16:39;;;;;;;;;;;;;;;13.19;100.00;98491.08;1723460;83;20459;-78
2022/07/13 07:19:06;;;;;;;;;;;;;;;13.21;100.00;98493.69;1753028;82;21102;-72
2022/07/13 07:21:32;;;;;;;;;;;;;;;13.23;100.00;98496.67;1754705;80;20121;-72
2022/07/13 07:23:59;;;;;;;;;;;;;;;13.24;100.00;98502.41;1721498;83;20132;-72
2022/07/13 07:26:26;;;;;;;;;;;;;;;13.19;100.00;98495.20;1728846;82;20266;-76
2022/07/13 07:28:52;;;;;;;;;;;;;;;13.19;100.00;98493.83;1754564;82;20107;-76
2022/07/13 07:31:19;;;;;;;;;;;;;;;13.20;100.00;98481.66;1754579;82;21548;-72
2022/07/13 07:33:46;;;;;;;;;;;;;;;13.21;100.00;98497.83;1754772;82;20167;-73
2022/07/13 07:36:12;;;;;;;;;;;;;;;13.18;100.00;98493.03;1754614;81;20118;-72
2022/07/13 07:38:39;;;;;;;;;;;;;;;13.17;100.00;98488.68;1754397;82;20158;-74
2022/07/13 07:41:05;;;;;;;;;;;;;;;13.17;100.00;98494.19;1729201;82;20140;-73
2022/07/13 07:43:32;;;;;;;;;;;;;;;13.16;100.00;98497.30;1724399;83;21062;-71
2022/07/13 07:45:58;;;;;;;;;;;;;;;13.13;100.00;98507.05;1724389;83;20085;-71
2022/07/13 07:48:25;;;;;;;;;;;;;;;13.10;100.00;98501.45;1724869;83;20137;-70
2022/07/13 07:50:51;;;;;;;;;;;;;;;13.06;100.00;98500.00;1724631;82;20215;-69
2022/07/13 07:53:18;;;;;;;;;;;;;;;13.04;100.00;98499.55;1724453;82;20145;-70
2022/07/13 07:55:45;;;;;;;;;;;;;;;13.05;100.00;98499.77;1724614;83;21040;-69
2022/07/13 07:58:11;;;;;;;;;;;;;;;13.06;100.00;98508.26;1732187;82;20437;-70
2022/07/13 08:00:38;;;;;;;;;;;;;;;13.06;100.00;98505.50;1740264;81;20099;-71
2022/07/13 08:03:04;;;;;;;;;;;;;;;13.07;100.00;98504.92;1727311;83;20095;-70
2022/07/13 08:05:32;;;;;;;;;;;;;;;13.06;100.00;98501.38;1727693;82;20123;-70
2022/07/13 08:07:58;;;;;;;;;;;;;;;13.07;100.00;98500.22;1727596;83;21136;-72
2022/07/13 08:10:25;;;;;;;;;;;;;;;13.09;100.00;98499.28;1731158;82;20107;-70
2022/07/13 08:12:53;;;;;;;;;;;;;;;13.12;100.00;98500.52;1727622;82;20453;-71
2022/07/13 08:15:20;;;;;;;;;;;;;;;13.12;100.00;98494.43;1727653;82;20083;-70
2022/07/13 08:17:47;;;;;;;;;;;;;;;13.10;100.00;98506.39;1727608;83;20095;-72
2022/07/13 08:20:14;;;;;;;;;;;;;;;13.11;100.00;98507.98;1727686;82;21156;-71
2022/07/13 08:22:41;;;;;;;;;;;;;;;13.12;100.00;98509.59;1727540;83;20135;-72
2022/07/13 08:25:09;;;;;;;;;;;;;;;13.12;100.00;98513.72;1727635;82;20098;-72
2022/07/13 08:27:36;;;;;;;;;;;;;;;13.12;100.00;98509.59;1727692;81;20095;-72
2022/07/13 08:30:03;;;;;;;;;;;;;;;13.11;100.00;98516.83;1727688;83;20126;-78
2022/07/13 08:32:29;;;;;;;;;;;;;;;13.10;100.00;98516.03;1727629;83;21144;-73
2022/07/13 08:40:27;;;;;;;;;;;;;;;13.06;100.00;98525.38;1710588;83;20097;-74
2022/07/13 08:42:53;;;;;;;;;;;;;;;13.04;100.00;98528.48;1698621;84;20444;-73
2022/07/13 08:45:20;;;;;;;;;;;;;;;13.03;100.00;98527.45;1698806;84;21116;-73
2022/07/13 08:47:47;;;;;;;;;;;;;;;13.01;100.00;98533.33;1698571;84;20118;-73
2022/07/13 08:50:13;;;;;;;;;;;;;;;13.00;100.00;98527.59;1698722;84;20090;-72
2022/07/13 08:52:41;;;;;;;;;;;;;;;13.02;100.00;98539.63;1698534;83;20494;-70
2022/07/13 08:55:08;;;;;;;;;;;;;;;13.02;100.00;98528.03;1698288;84;20153;-73
2022/07/13 08:57:38;;;;;;;;;;;;;;;13.07;100.00;98528.34;1718268;83;21181;-72
2022/07/13 09:00:11;;;;;;;;;;;;;;;13.12;100.00;98526.12;1731150;82;20187;-74
2022/07/13 09:02:35;;;;;;;;;;;;;;;13.18;100.00;98517.84;1752950;81;20197;-69
2022/07/13 09:05:05;;;;;;;;;;;;;;;13.26;100.00;98516.63;1754334;82;20418;-73
2022/07/13 09:07:33;;;;;;;;;;;;;;;13.34;100.00;98516.98;1754172;81;20417;-75
2022/07/13 09:10:02;;;;;;;;;;;;;;;13.41;100.00;98517.14;1754330;81;21098;-71
2022/07/13 09:12:29;;;;;;;;;;;;;;;13.47;100.00;98508.23;1753854;81;20450;-72
2022/07/13 09:15:00;;;;;;;;;;;;;;;13.53;100.00;98502.66;1754231;82;20119;-73
2022/07/13 09:17:43;;;;;;;;;;;;;;;13.60;100.00;98502.60;1754563;82;20375;-72
2022/07/13 09:20:17;;;;;;;;;;;;;;;13.68;100.00;98499.64;1754711;82;20133;-75
2022/07/13 09:22:52;;;;;;;;;;;;;;;13.84;100.00;98500.37;1754523;82;21166;-74
2022/07/13 09:25:34;;;;;;;;;;;;;;;13.93;100.00;98505.66;1753568;82;20157;-72
2022/07/13 09:28:03;;;;;;;;;;;;;;;14.01;100.00;98510.73;1754186;81;20525;-74
2022/07/13 09:30:31;;;;;;;;;;;;;;;14.06;100.00;98504.92;1754760;81;20150;-76
2022/07/13 09:32:58;;;;;;;;;;;;;;;14.11;100.00;98506.02;1754487;82;20115;-76
2022/07/13 09:35:46;;;;;;;;;;;;;;;14.22;100.00;98498.75;1754421;82;21151;-76
2022/07/13 09:38:36;;;;;;;;;;;;;;;14.35;100.00;98494.66;1754450;82;20153;-75
2022/07/13 09:41:26;;;;;;;;;;;;;;;14.48;100.00;98492.53;1724072;82;20637;-81
2022/07/13 09:47:00;;;;;;;;;;;;;;;14.52;100.00;98494.19;1724478;83;20097;-78
2022/07/13 09:49:31;;;;;;;;;;;;;;;14.61;100.00;98496.71;1724534;82;21067;-73
2022/07/13 09:52:03;;;;;;;;;;;;;;;14.67;100.00;98498.01;1723953;82;20113;-74
2022/07/13 09:54:33;;;;;;;;;;;;;;;14.70;100.00;98500.62;1699247;83;20097;-73
2022/07/13 09:57:03;;;;;;;;;;;;;;;14.66;100.00;98499.17;1724361;83;20460;-73
2022/07/13 09:59:30;;;;;;;;;;;;;;;14.62;100.00;98494.17;1723245;82;20141;-73
2022/07/13 10:02:04;;;;;;;;;;;;;;;14.57;100.00;98495.05;1709809;83;22107;-72
2022/07/13 10:04:35;;;;;;;;;;;;;;;14.47;100.00;98501.40;1727036;82;20585;-72
2022/07/13 10:07:07;;;;;;;;;;;;;;;14.35;100.00;98503.52;1707557;83;20148;-72
2022/07/13 10:09:40;;;;;;;;;;;;;;;14.24;100.00;98501.94;1726786;83;20521;-71
2022/07/13 10:12:13;;;;;;;;;;;;;;;14.17;100.00;98497.66;1727735;82;20083;-70
2022/07/13 10:14:43;;;;;;;;;;;;;;;14.10;100.00;98492.00;1727635;82;21830;-70
2022/07/13 10:17:11;;;;;;;;;;;;;;;14.09;100.00;98495.92;1727473;82;20129;-69
2022/07/13 10:19:45;;;;;;;;;;;;;;;14.06;100.00;98493.89;1730543;83;20429;-69
2022/07/13 10:22:24;;;;;;;;;;;;;;;14.03;100.00;98494.62;1727733;83;20083;-70
2022/07/13 10:24:53;;;;;;;;;;;;;;;14.00;100.00;98500.86;1727659;82;20122;-70
2022/07/13 10:27:26;;;;;;;;;;;;;;;13.96;100.00;98493.09;1727502;83;22215;-70
2022/07/13 10:30:01;;;;;;;;;;;;;;;13.97;100.00;98490.55;1727552;83;20468;-70
2022/07/13 10:32:27;;;;;;;;;;;;;;;13.97;100.00;98491.34;1706069;83;20099;-69
2022/07/13 10:35:04;;;;;;;;;;;;;;;13.98;100.00;98488.81;1727618;83;20139;-70
2022/07/13 10:38:01;;;;;;;;;;;;;;;13.95;100.00;98495.63;1727901;83;20485;-69
2022/07/13 10:40:28;;;;;;;;;;;;;;;13.97;100.00;98485.83;1710325;82;21799;-69
2022/07/13 10:43:04;;;;;;;;;;;;;;;14.01;100.00;98481.19;1698630;84;20120;-70
2022/07/13 10:45:43;;;;;;;;;;;;;;;14.01;100.00;98490.04;1698106;84;20137;-70
2022/07/13 10:48:24;;;;;;;;;;;;;;;14.01;100.00;98490.84;1697448;84;20571;-70
2022/07/13 10:50:53;;;;;;;;;;;;;;;14.00;100.00;98487.86;1698722;83;20137;-71
2022/07/13 10:53:20;;;;;;;;;;;;;;;14.03;100.00;98495.41;1726834;83;21152;-72
2022/07/13 10:55:47;;;;;;;;;;;;;;;14.03;100.00;98492.66;1727539;83;20087;-69
2022/07/13 10:58:42;;;;;;;;;;;;;;;14.01;100.00;98505.22;1727589;83;20465;-68
2022/07/13 11:01:41;;;;;;;;;;;;;;;13.95;100.00;98517.13;1727392;82;20122;-69
2022/07/13 11:04:07;;;;;;;;;;;;;;;13.90;100.00;98517.41;1727574;82;20082;-68
2022/07/13 11:06:36;;;;;;;;;;;;;;;13.82;100.00;98530.28;1727876;82;20534;-69
2022/07/13 11:09:12;;;;;;;;;;;;;;;13.74;100.00;98527.16;1707512;83;20087;-70
2022/07/13 11:11:48;;;;;;;;;;;;;;;13.67;100.00;98506.31;1727789;82;20119;-69
2022/07/13 11:14:39;;;;;;;;;;;;;;;13.60;100.00;98496.51;1726887;83;20531;-71
2022/07/13 11:17:13;;;;;;;;;;;;;;;13.55;100.00;98500.92;1727813;82;20418;-68
2022/07/13 11:19:56;;;;;;;;;;;;;;;13.50;100.00;98497.88;1727740;82;21177;-70
2022/07/13 11:25:14;;;;;;;;;;;;;;;13.52;100.00;98490.62;1698410;83;20160;-69
2022/07/13 11:27:45;;;;;;;;;;;;;;;13.57;100.00;98488.95;1726538;83;20138;-70
2022/07/13 11:30:13;;;;;;;;;;;;;;;13.63;100.00;98486.13;1727275;83;20098;-73
2022/07/13 11:32:41;;;;;;;;;;;;;;;13.68;100.00;98489.98;1727881;82;21572;-69
2022/07/13 11:35:08;;;;;;;;;;;;;;;13.71;100.00;98480.98;1727531;83;20107;-70
2022/07/13 11:37:38;;;;;;;;;;;;;;;13.77;100.00;98493.34;1727862;83;20083;-71
2022/07/13 11:40:06;;;;;;;;;;;;;;;13.81;100.00;98489.27;1727735;82;20083;-71
2022/07/13 11:42:34;;;;;;;;;;;;;;;13.83;100.00;98483.61;1716950;83;20154;-71
2022/07/13 11:45:01;;;;;;;;;;;;;;;13.84;100.00;98486.59;1727875;82;21650;-71
2022/07/13 11:47:28;;;;;;;;;;;;;;;13.85;100.00;98491.52;1727802;83;20107;-71
2022/07/13 11:49:55;;;;;;;;;;;;;;;13.86;100.00;98493.89;1727865;83;20091;-70
2022/07/13 11:52:26;;;;;;;;;;;;;;;13.88;100.00;98497.08;1727584;83;20168;-72
2022/07/13 11:55:04;;;;;;;;;;;;;;;13.91;100.00;98490.63;1727836;83;20095;-72
2022/07/13 11:57:32;;;;;;;;;;;;;;;13.93;100.00;98481.41;1727798;83;21168;-70
2022/07/13 12:00:02;;;;;;;;;;;;;;;13.96;100.00;98485.61;1727699;83;20115;-70
2022/07/13 12:02:31;;;;;;;;;;;;;;;13.98;100.00;98489.39;1739274;82;20106;-70
2022/07/13 12:05:00;;;;;;;;;;;;;;;13.99;100.00;98495.12;1744298;81;20119;-71
2022/07/13 12:07:31;;;;;;;;;;;;;;;13.98;100.00;98489.39;1743789;82;20115;-71
2022/07/13 12:10:05;;;;;;;;;;;;;;;13.97;100.00;98489.17;1744335;82;20588;-71
2022/07/13 12:12:34;;;;;;;;;;;;;;;13.98;100.00;98494.91;1744132;82;20083;-71
2022/07/13 12:15:02;;;;;;;;;;;;;;;13.96;100.00;98493.09;1744389;81;20080;-70
2022/07/13 12:17:34;;;;;;;;;;;;;;;13.95;100.00;98496.43;1744303;81;20119;-70
2022/07/13 12:20:16;;;;;;;;;;;;;;;13.95;100.00;98490.91;1718611;82;20439;-70
2022/07/13 12:22:54;;;;;;;;;;;;;;;13.96;100.00;98492.52;1742884;82;21105;-70
2022/07/13 12:25:32;;;;;;;;;;;;;;;13.94;100.00;98485.76;1744323;82;20123;-70
2022/07/13 12:28:00;;;;;;;;;;;;;;;13.90;100.00;98487.06;1744643;81;20159;-70
2022/07/13 12:30:27;;;;;;;;;;;;;;;13.92;100.00;98486.13;1744072;82;20091;-71
2022/07/13 12:32:56;;;;;;;;;;;;;;;13.99;100.00;98479.95;1744592;82;20107;-71
2022/07/13 12:35:28;;;;;;;;;;;;;;;14.06;100.00;98478.71;1744437;81;20546;-70
2022/07/13 12:37:55;;;;;;;;;;;;;;;14.11;100.00;98481.17;1744233;82;20469;-70
2022/07/13 12:40:40;;;;;;;;;;;;;;;14.15;100.00;98478.70;1744327;82;20154;-71
2022/07/13 12:43:23;;;;;;;;;;;;;;;14.24;100.00;98473.53;1744173;82;20111;-71
2022/07/13 12:45:53;;;;;;;;;;;;;;;14.31;100.00;98468.15;1744381;82;20449;-71
2022/07/13 12:48:26;;;;;;;;;;;;;;;14.40;100.00;98463.98;1744233;82;20678;-71
2022/07/13 12:51:13;;;;;;;;;;;;;;;14.48;100.00;98472.62;1744527;82;20083;-71
2022/07/13 12:53:51;;;;;;;;;;;;;;;14.49;100.00;98471.45;1744399;82;20508;-71
2022/07/13 12:56:20;;;;;;;;;;;;;;;14.49;100.00;98474.21;1744300;82;20454;-71